Time;durP1;ratioP1;P1;durP2;ratioP2;P2;SDS_P1;SDS_P2;PMS_P1;PMS_P2;Temp;Humidity;BMP_temperature;BMP_pressure;BME280_temperature;BME280_humidity;BME280_pressure;Samples;Min_cycle;Max_cycle;Signal;HPM_P1;HPM_P2
2023/03/29 00:01:01;;;;;;;3.13;1.90;;;;;;;8.58;73.00;99096.13;5009232;28;102820;-65
2023/03/29 00:03:30;;;;;;;2.20;1.53;;;;;;;8.65;72.27;99079.88;5011173;27;104032;-65
2023/03/29 00:06:04;;;;;;;2.13;1.70;;;;;;;8.64;72.54;99088.75;5010660;28;103231;-64
2023/03/29 00:08:36;;;;;;;2.33;1.90;;;;;;;8.71;72.63;99081.31;5009039;28;102967;-62
2023/03/29 00:11:06;;;;;;;2.00;1.70;;;;;;;8.50;73.43;99086.06;5008930;27;102800;-64
2023/03/29 00:13:37;;;;;;;2.60;1.80;;;;;;;8.59;73.17;99074.09;5002488;28;103211;-64
2023/03/29 00:16:11;;;;;;;2.63;1.80;;;;;;;8.69;72.93;99070.88;5020453;27;103076;-62
2023/03/29 00:18:41;;;;;;;2.47;1.70;;;;;;;8.60;72.80;99065.28;5022408;27;102683;-64
2023/03/29 00:21:11;;;;;;;2.20;1.50;;;;;;;8.55;72.15;99062.94;5022108;27;102739;-63
2023/03/29 00:23:39;;;;;;;3.17;1.60;;;;;;;8.58;72.29;99068.03;5009813;28;103165;-63
2023/03/29 00:26:07;;;;;;;1.77;1.60;;;;;;;8.56;72.16;99059.34;5012872;28;103256;-63
2023/03/29 00:28:36;;;;;;;1.87;1.50;;;;;;;8.38;73.46;99060.41;5008107;27;103194;-63
2023/03/29 00:31:07;;;;;;;2.00;1.50;;;;;;;8.33;72.74;99067.75;5004716;27;104307;-63
2023/03/29 00:33:35;;;;;;;2.03;1.20;;;;;;;8.33;73.26;99057.22;5027779;27;103245;-62
2023/03/29 00:36:04;;;;;;;2.87;1.80;;;;;;;8.24;73.53;99055.06;5010222;27;103238;-62
2023/03/29 00:38:32;;;;;;;3.50;1.93;;;;;;;8.24;73.89;99055.06;5010198;27;102833;-63
2023/03/29 00:41:01;;;;;;;2.20;1.60;;;;;;;8.11;74.08;99051.44;5001234;27;102620;-63
2023/03/29 00:43:29;;;;;;;1.50;1.40;;;;;;;8.30;73.28;99054.75;5010669;28;103403;-63
2023/03/29 00:45:58;;;;;;;2.03;1.80;;;;;;;8.31;73.73;99059.06;5005509;27;103209;-63
2023/03/29 00:48:28;;;;;;;2.53;1.97;;;;;;;8.41;73.23;99054.13;5005233;27;102756;-63
2023/03/29 00:51:03;;;;;;;2.17;1.57;;;;;;;8.35;73.53;99050.06;5007484;27;103121;-63
2023/03/29 00:53:36;;;;;;;3.27;1.60;;;;;;;8.32;73.69;99046.75;5006400;27;103321;-63
2023/03/29 00:56:08;;;;;;;2.73;1.80;;;;;;;8.45;72.93;99043.31;5020093;27;103289;-64
2023/03/29 00:58:43;;;;;;;1.77;1.60;;;;;;;8.57;73.10;99033.84;5008423;27;102719;-63
2023/03/29 01:01:18;;;;;;;1.33;1.20;;;;;;;8.61;72.87;99038.88;5007253;27;102799;-63
2023/03/29 01:03:52;;;;;;;2.70;2.20;;;;;;;8.39;74.07;99030.53;5005709;27;103407;-63
2023/03/29 01:06:24;;;;;;;1.67;1.50;;;;;;;8.37;73.67;99026.28;5000198;27;103172;-63
2023/03/29 01:08:55;;;;;;;3.07;2.20;;;;;;;8.26;74.36;99024.22;5005475;27;102829;-63
2023/03/29 01:11:27;;;;;;;3.30;2.50;;;;;;;8.18;75.48;99016.78;5009372;27;103605;-63
2023/03/29 01:14:01;;;;;;;2.37;2.00;;;;;;;8.22;74.42;99014.84;5004847;27;103527;-63
2023/03/29 01:16:33;;;;;;;2.50;2.20;;;;;;;8.14;74.88;99011.75;5005750;27;103258;-63
2023/03/29 01:19:01;;;;;;;3.83;2.50;;;;;;;8.10;75.20;99007.63;5005668;27;102897;-63
2023/03/29 01:21:35;;;;;;;2.60;2.30;;;;;;;7.96;75.34;98999.69;5007562;27;103972;-63
2023/03/29 01:24:33;;;;;;;2.80;2.30;;;;;;;7.88;75.90;99007.16;5005764;27;104425;-63
2023/03/29 01:27:08;;;;;;;2.30;2.10;;;;;;;8.08;74.60;98999.81;5004776;27;103321;-63
2023/03/29 01:29:42;;;;;;;3.77;1.83;;;;;;;7.87;75.99;98989.66;5006947;27;102690;-63
2023/03/29 01:32:13;;;;;;;4.60;2.40;;;;;;;7.83;75.96;98988.16;5004971;27;102728;-62
2023/03/29 01:34:48;;;;;;;2.33;1.93;;;;;;;8.09;75.35;98983.09;5006235;27;103192;-63
2023/03/29 01:37:23;;;;;;;2.27;1.83;;;;;;;7.97;75.40;98983.78;5006446;27;104887;-62
2023/03/29 01:39:51;;;;;;;3.43;2.20;;;;;;;8.02;75.17;98978.28;5007078;27;102726;-63
2023/03/29 01:42:32;;;;;;;2.90;2.10;;;;;;;7.91;75.15;98967.53;5007770;27;104133;-62
2023/03/29 01:45:15;;;;;;;3.10;2.20;;;;;;;7.77;75.78;98967.47;5005569;27;105720;-62
2023/03/29 01:47:47;;;;;;;2.17;1.93;;;;;;;7.81;75.71;98964.56;5005593;27;103304;-62
2023/03/29 01:50:19;;;;;;;4.00;2.30;;;;;;;7.85;75.40;98954.72;5004570;27;104011;-62
2023/03/29 01:52:53;;;;;;;1.90;1.80;;;;;;;7.79;76.09;98947.19;5008742;27;102809;-62
2023/03/29 01:55:25;;;;;;;2.30;2.10;;;;;;;7.99;75.26;98942.47;5008455;27;104055;-62
2023/03/29 01:57:56;;;;;;;2.97;2.30;;;;;;;7.82;76.15;98936.47;5021378;27;107744;-63
2023/03/29 02:00:28;;;;;;;2.47;2.20;;;;;;;7.70;76.81;98937.16;5020001;27;103079;-63
2023/03/29 02:03:03;;;;;;;3.30;2.30;;;;;;;7.67;76.85;98929.44;5002943;27;103057;-63
2023/03/29 02:05:32;;;;;;;3.40;2.30;;;;;;;7.54;77.73;98924.91;5007634;27;103119;-63
2023/03/29 02:08:05;;;;;;;2.67;2.10;;;;;;;7.64;77.13;98919.97;5006455;27;103179;-63
2023/03/29 02:10:35;;;;;;;3.27;2.00;;;;;;;7.67;77.14;98919.78;5021116;27;103097;-63
2023/03/29 02:13:05;;;;;;;3.53;1.90;;;;;;;7.42;78.00;98922.09;5004556;27;102770;-63
2023/03/29 02:15:34;;;;;;;3.70;2.30;;;;;;;7.59;77.56;98916.75;5005579;27;103871;-63
2023/03/29 02:18:03;;;;;;;3.53;2.13;;;;;;;7.50;77.80;98912.84;5003506;27;103383;-63
2023/03/29 02:20:35;;;;;;;3.10;1.80;;;;;;;7.47;77.88;98913.03;5006669;27;102814;-63
2023/03/29 02:23:08;;;;;;;3.53;1.97;;;;;;;7.49;78.01;98918.22;5004945;27;102974;-63
2023/03/29 02:25:37;;;;;;;3.23;2.80;;;;;;;7.48;77.99;98920.00;5007668;27;103281;-63
2023/03/29 02:28:06;;;;;;;5.03;1.93;;;;;;;7.48;78.11;98920.00;5004743;27;103583;-63
2023/03/29 02:30:45;;;;;;;3.67;2.07;;;;;;;7.68;76.85;98923.28;5003505;27;104684;-63
2023/03/29 02:33:17;;;;;;;4.20;2.53;;;;;;;7.53;77.90;98922.34;5008554;27;104137;-63
2023/03/29 02:35:52;;;;;;;2.53;2.23;;;;;;;7.53;77.84;98917.09;5003742;27;104174;-63
2023/03/29 02:38:26;;;;;;;2.40;2.20;;;;;;;7.64;77.80;98924.38;5003790;27;102931;-63
2023/03/29 02:40:57;;;;;;;2.83;2.20;;;;;;;7.77;77.20;98914.88;5001396;27;102910;-63
2023/03/29 02:43:29;;;;;;;3.03;2.33;;;;;;;7.83;76.66;98917.16;5018648;27;102842;-63
2023/03/29 02:45:59;;;;;;;3.20;2.37;;;;;;;7.73;77.25;98902.81;5005527;27;103192;-63
2023/03/29 02:48:30;;;;;;;5.27;2.60;;;;;;;7.81;76.71;98890.91;5006838;27;103228;-63
2023/03/29 02:51:03;;;;;;;4.67;2.60;;;;;;;7.66;77.56;98881.31;5006050;27;102759;-62
2023/03/29 02:53:38;;;;;;;2.60;2.20;;;;;;;7.83;76.95;98867.16;5008941;27;103230;-63
2023/03/29 02:56:07;;;;;;;3.30;2.27;;;;;;;7.87;76.48;98866.03;5024194;27;103180;-63
2023/03/29 02:58:35;;;;;;;5.47;2.40;;;;;;;7.86;76.24;98857.28;5007099;28;103366;-63
2023/03/29 03:01:06;;;;;;;4.13;2.50;;;;;;;7.93;75.96;98863.03;5006780;27;102790;-63
2023/03/29 03:03:34;;;;;;;2.53;2.13;;;;;;;7.74;76.71;98863.28;5007272;27;104377;-63
2023/03/29 03:06:04;;;;;;;6.13;2.90;;;;;;;7.20;79.12;98848.88;5007637;27;103678;-63
2023/03/29 03:08:32;;;;;;;4.20;2.70;;;;;;;6.87;81.09;98848.13;5008224;27;103546;-63
2023/03/29 03:11:01;;;;;;;2.20;1.63;;;;;;;7.29;79.34;98848.38;5008196;27;102719;-63
2023/03/29 03:13:32;;;;;;;4.47;2.40;;;;;;;7.46;78.16;98845.63;5008327;27;104170;-63
2023/03/29 03:16:01;;;;;;;3.17;2.10;;;;;;;7.56;77.71;98852.03;5007527;27;104764;-63
2023/03/29 03:18:31;;;;;;;2.73;2.10;;;;;;;7.64;77.60;98845.47;5007773;27;103250;-63
2023/03/29 03:21:01;;;;;;;2.00;1.80;;;;;;;7.69;77.08;98853.97;5013323;27;102619;-63
2023/03/29 03:23:29;;;;;;;1.83;1.60;;;;;;;7.76;76.34;98857.94;5008756;27;103900;-62
2023/03/29 03:25:58;;;;;;;2.23;1.83;;;;;;;7.85;75.75;98855.63;5022404;27;104594;-63
2023/03/29 03:28:26;;;;;;;3.47;2.07;;;;;;;7.88;76.10;98855.44;5012077;27;104304;-62
2023/03/29 03:30:54;;;;;;;3.70;1.90;;;;;;;7.89;76.03;98851.84;5006427;27;102847;-62
2023/03/29 03:33:23;;;;;;;4.53;1.97;;;;;;;7.83;76.01;98854.00;5010861;27;104177;-63
2023/03/29 03:36:15;;;;;;;3.63;2.27;;;;;;;7.83;75.70;98854.00;5006722;27;104409;-63
2023/03/29 03:38:45;;;;;;;2.53;1.47;;;;;;;7.86;75.91;98851.22;5008926;27;103410;-63
2023/03/29 03:41:13;;;;;;;1.80;1.70;;;;;;;7.95;75.82;98845.38;5007626;27;102870;-63
2023/03/29 03:43:42;;;;;;;2.03;1.80;;;;;;;8.02;75.97;98841.47;5011646;27;102795;-63
2023/03/29 03:46:11;;;;;;;1.47;1.37;;;;;;;8.03;75.74;98837.88;5022799;27;105319;-63
2023/03/29 03:48:39;;;;;;;1.97;1.77;;;;;;;7.96;75.77;98847.09;5006240;27;106049;-63
2023/03/29 03:51:38;;;;;;;2.60;1.53;;;;;;;8.02;75.81;98846.72;5004905;27;102884;-63
2023/03/29 03:54:06;;;;;;;2.20;1.30;;;;;;;8.06;75.14;98856.13;5005519;27;102791;-62
2023/03/29 03:56:34;;;;;;;2.77;1.80;;;;;;;8.11;74.13;98840.91;5004922;27;103159;-62
2023/03/29 03:59:18;;;;;;;1.80;1.70;;;;;;;8.04;75.59;98836.94;5004900;27;103316;-63
2023/03/29 04:02:13;;;;;;;2.70;1.33;;;;;;;8.09;75.03;98837.50;5004622;27;102852;-62
2023/03/29 04:04:43;;;;;;;2.90;1.90;;;;;;;8.18;74.11;98842.22;5003688;27;102795;-62
2023/03/29 04:07:19;;;;;;;3.87;1.97;;;;;;;8.15;74.58;98847.66;5012740;27;103530;-63
2023/03/29 04:09:56;;;;;;;2.13;1.50;;;;;;;8.09;75.67;98853.28;5008866;27;102903;-62
2023/03/29 04:12:33;;;;;;;3.23;1.70;;;;;;;8.14;75.36;98856.50;5008402;27;102634;-63
2023/03/29 04:15:02;;;;;;;2.23;1.70;;;;;;;8.20;75.41;98856.13;5008942;27;102727;-62
2023/03/29 04:17:32;;;;;;;3.03;1.63;;;;;;;8.20;75.35;98860.56;5009939;27;103368;-63
2023/03/29 04:20:11;;;;;;;2.10;1.57;;;;;;;8.24;74.74;98857.66;5005132;27;103411;-63
2023/03/29 04:22:43;;;;;;;2.43;1.83;;;;;;;8.26;74.79;98855.78;5013550;28;103821;-62
2023/03/29 04:25:14;;;;;;;2.60;2.20;;;;;;;8.10;75.26;98861.13;5003518;28;103134;-63
2023/03/29 04:27:49;;;;;;;3.10;2.17;;;;;;;8.18;75.33;98858.03;5008480;27;104786;-63
2023/03/29 04:30:45;;;;;;;3.00;1.90;;;;;;;8.01;75.34;98855.53;5002528;27;103235;-63
2023/03/29 04:33:14;;;;;;;4.10;2.10;;;;;;;7.87;75.67;98853.72;5005627;27;102646;-63
2023/03/29 04:35:47;;;;;;;4.57;2.03;;;;;;;7.89;75.66;98856.25;5007104;27;102777;-63
2023/03/29 04:38:21;;;;;;;2.97;1.97;;;;;;;8.01;75.41;98860.81;5022389;27;105299;-63
2023/03/29 04:40:53;;;;;;;2.47;1.70;;;;;;;8.17;74.46;98854.53;5001192;27;103345;-63
2023/03/29 04:43:45;;;;;;;3.27;1.97;;;;;;;8.17;73.90;98851.91;5005423;27;102663;-62
2023/03/29 04:46:27;;;;;;;1.77;1.50;;;;;;;8.28;73.67;98859.19;5011823;27;103154;-61
2023/03/29 04:49:15;;;;;;;2.20;1.40;;;;;;;8.36;74.14;98861.38;4984840;27;103914;-63
2023/03/29 04:51:47;;;;;;;1.67;1.57;;;;;;;8.44;73.78;98859.09;5000337;27;104070;-62
2023/03/29 04:54:21;;;;;;;2.43;1.20;;;;;;;8.25;73.79;98859.34;5007041;27;102815;-62
2023/03/29 04:57:03;;;;;;;2.07;1.87;;;;;;;8.26;73.92;98863.66;5003086;27;102884;-63
2023/03/29 04:59:43;;;;;;;5.07;1.70;;;;;;;7.87;74.63;98859.00;5000133;27;103473;-63
2023/03/29 05:02:37;;;;;;;3.50;1.90;;;;;;;7.91;74.64;98850.00;4980832;27;103219;-63
2023/03/29 05:05:05;;;;;;;4.37;1.70;;;;;;;8.28;73.65;98858.34;5009157;27;102660;-63
2023/03/29 05:07:34;;;;;;;2.07;1.40;;;;;;;8.38;73.56;98855.06;5004885;27;103139;-63
2023/03/29 05:10:05;;;;;;;1.77;1.50;;;;;;;8.36;73.12;98856.94;5008186;27;103203;-63
2023/03/29 05:12:33;;;;;;;4.47;1.63;;;;;;;8.43;71.76;98858.25;5008033;27;102962;-63
2023/03/29 05:15:02;;;;;;;2.70;1.40;;;;;;;8.45;71.37;98853.75;5024398;27;102815;-63
2023/03/29 05:17:32;;;;;;;1.57;1.40;;;;;;;8.61;70.73;98851.03;5008151;27;102768;-63
2023/03/29 05:20:10;;;;;;;2.30;1.20;;;;;;;8.68;70.39;98853.16;5008316;28;103739;-63
2023/03/29 05:22:39;;;;;;;2.07;1.60;;;;;;;8.72;69.44;98854.69;5026748;27;103064;-63
2023/03/29 05:25:12;;;;;;;3.80;2.33;;;;;;;8.65;70.06;98852.50;5002580;28;102802;-63
2023/03/29 05:27:44;;;;;;;4.00;2.40;;;;;;;8.76;70.20;98854.50;5009282;28;104391;-63
2023/03/29 05:30:14;;;;;;;2.80;1.83;;;;;;;8.51;69.56;98856.00;5004899;27;103335;-63
2023/03/29 05:33:09;;;;;;;3.27;1.60;;;;;;;8.69;70.39;98852.25;5012330;28;103219;-63
2023/03/29 05:35:39;;;;;;;2.00;1.27;;;;;;;8.73;69.71;98856.38;5004803;27;102707;-63
2023/03/29 05:38:08;;;;;;;3.70;1.50;;;;;;;8.48;70.30;98850.91;5004315;28;102693;-62
2023/03/29 05:40:38;;;;;;;1.60;1.50;;;;;;;8.57;69.25;98855.63;5006078;28;103289;-63
2023/03/29 05:43:35;;;;;;;1.87;1.40;;;;;;;8.77;70.41;98848.28;5019669;27;103223;-63
2023/03/29 05:46:04;;;;;;;1.77;1.27;;;;;;;8.71;70.03;98852.13;5011738;27;102718;-63
2023/03/29 05:48:33;;;;;;;1.30;1.17;;;;;;;8.79;70.10;98851.66;5013173;28;104694;-63
2023/03/29 05:51:02;;;;;;;2.13;1.40;;;;;;;8.96;69.77;98856.69;5006299;28;103081;-63
2023/03/29 05:53:31;;;;;;;1.50;1.30;;;;;;;9.04;69.30;98862.38;5011991;28;103169;-63
2023/03/29 05:56:01;;;;;;;3.23;1.60;;;;;;;9.01;69.11;98859.91;5008049;27;102735;-63
2023/03/29 05:58:30;;;;;;;5.30;1.93;;;;;;;9.03;68.50;98848.34;5003409;27;102694;-63
2023/03/29 06:00:59;;;;;;;2.83;1.40;;;;;;;9.08;67.52;98850.66;5021495;27;103448;-63
2023/03/29 06:03:47;;;;;;;3.13;1.20;;;;;;;9.09;66.33;98855.00;5007065;28;103213;-63
2023/03/29 06:06:18;;;;;;;2.60;1.33;;;;;;;9.11;67.47;98850.47;5006029;28;102658;-62
2023/03/29 06:08:47;;;;;;;3.63;1.53;;;;;;;9.26;67.37;98854.78;5008839;28;102661;-63
2023/03/29 06:11:23;;;;;;;1.57;1.40;;;;;;;9.27;66.41;98856.44;5008576;27;103627;-63
2023/03/29 06:14:17;;;;;;;2.40;1.40;;;;;;;9.42;66.17;98859.88;5010075;28;103414;-62
2023/03/29 06:16:52;;;;;;;3.00;1.30;;;;;;;9.42;67.56;98867.78;5008054;27;102854;-63
2023/03/29 06:19:21;;;;;;;1.30;1.20;;;;;;;9.47;68.19;98863.06;5013781;28;104168;-62
2023/03/29 06:21:51;;;;;;;2.47;1.60;;;;;;;9.48;67.33;98865.63;5010369;28;103325;-62
2023/03/29 06:24:24;;;;;;;5.30;1.93;;;;;;;9.56;65.69;98868.59;5020262;27;104051;-63
2023/03/29 06:27:01;;;;;;;5.83;2.17;;;;;;;9.58;66.25;98871.97;5013117;27;102709;-63
2023/03/29 06:29:30;;;;;;;4.23;1.80;;;;;;;9.56;66.99;98867.75;5012559;28;103956;-63
2023/03/29 06:31:59;;;;;;;4.40;1.67;;;;;;;9.30;66.43;98872.06;5011954;28;103185;-63
2023/03/29 06:34:46;;;;;;;1.50;1.40;;;;;;;9.43;66.38;98883.50;5008136;28;104048;-63
2023/03/29 06:37:49;;;;;;;5.53;1.80;;;;;;;9.63;66.14;98875.16;4977247;28;102761;-63
2023/03/29 06:40:26;;;;;;;5.00;2.27;;;;;;;9.69;65.36;98873.91;5019674;27;102751;-63
2023/03/29 06:42:56;;;;;;;11.03;7.20;;;;;;;9.81;66.30;98884.50;5009280;28;103243;-63
2023/03/29 06:45:46;;;;;;;20.33;14.50;;;;;;;9.64;64.97;98879.50;5006068;27;103371;-63
2023/03/29 06:48:28;;;;;;;4.80;2.60;;;;;;;9.48;65.51;98878.81;5014863;27;103155;-63
2023/03/29 06:50:57;;;;;;;4.60;2.03;;;;;;;9.61;66.81;98877.03;5010889;28;102650;-63
2023/03/29 06:53:29;;;;;;;4.00;1.70;;;;;;;9.68;66.19;98883.63;5010619;28;103521;-63
2023/03/29 06:56:04;;;;;;;5.60;2.23;;;;;;;9.73;66.54;98875.41;5013644;27;103214;-63
2023/03/29 06:58:44;;;;;;;3.50;2.27;;;;;;;9.72;65.64;98890.38;5005423;28;102765;-63
2023/03/29 07:01:36;;;;;;;3.80;2.30;;;;;;;9.83;66.06;98882.59;5027804;27;102838;-63
2023/03/29 07:04:12;;;;;;;2.77;1.63;;;;;;;9.84;65.67;98892.22;5016835;28;103406;-63
2023/03/29 07:07:26;;;;;;;5.23;2.77;;;;;;;9.99;65.98;98889.50;4998865;28;103303;-63
2023/03/29 07:10:09;;;;;;;4.67;2.13;;;;;;;9.77;66.15;98893.56;5010413;28;102738;-63
2023/03/29 07:13:00;;;;;;;13.57;9.03;;;;;;;10.10;64.79;98900.19;5009422;28;102765;-64
2023/03/29 07:15:30;;;;;;;4.63;3.80;;;;;;;10.37;64.35;98887.78;5013869;28;103324;-64
2023/03/29 07:18:18;;;;;;;4.73;2.47;;;;;;;10.40;65.97;98908.72;5007199;28;103172;-64
2023/03/29 07:20:48;;;;;;;5.83;2.20;;;;;;;10.40;65.50;98909.56;5001182;28;102787;-63
2023/03/29 07:23:16;;;;;;;3.23;1.93;;;;;;;10.52;65.87;98902.59;5006804;28;102880;-63
2023/03/29 07:25:46;;;;;;;4.93;1.97;;;;;;;10.52;65.62;98910.50;5007947;28;103269;-63
2023/03/29 07:28:14;;;;;;;4.33;2.00;;;;;;;10.59;65.66;98908.28;5000570;28;104146;-63
2023/03/29 07:30:43;;;;;;;3.73;1.80;;;;;;;10.65;66.01;98907.84;5012009;27;102594;-63
2023/03/29 07:33:15;;;;;;;3.50;1.90;;;;;;;10.78;65.08;98909.53;5011763;28;103960;-63
2023/03/29 07:35:59;;;;;;;4.03;2.60;;;;;;;10.57;63.47;98911.03;5010487;27;103238;-63
2023/03/29 07:38:27;;;;;;;4.23;2.03;;;;;;;10.51;64.15;98908.81;5027389;27;103269;-64
2023/03/29 07:41:03;;;;;;;2.80;1.90;;;;;;;10.34;65.08;98911.75;5004732;28;102724;-63
2023/03/29 07:43:50;;;;;;;4.30;2.30;;;;;;;10.38;65.33;98911.47;5007920;28;102935;-63
2023/03/29 07:46:24;;;;;;;6.03;2.37;;;;;;;10.27;66.49;98915.78;5008856;28;103206;-63
2023/03/29 07:48:55;;;;;;;2.27;2.00;;;;;;;10.40;65.05;98920.13;5008337;28;103237;-63
2023/03/29 07:51:26;;;;;;;6.10;2.10;;;;;;;10.82;64.16;98920.75;5008383;28;102777;-64
2023/03/29 07:54:05;;;;;;;2.40;1.77;;;;;;;10.89;63.24;98930.78;5009418;28;104249;-63
2023/03/29 07:57:08;;;;;;;4.07;1.80;;;;;;;11.22;63.57;98924.94;4997739;28;103212;-64
2023/03/29 07:59:44;;;;;;;2.90;1.80;;;;;;;11.29;64.54;98923.53;5006338;28;103297;-64
2023/03/29 08:02:21;;;;;;;2.33;1.37;;;;;;;11.48;63.35;98920.41;5000460;27;102723;-63
2023/03/29 08:04:55;;;;;;;2.20;1.43;;;;;;;11.65;63.75;98922.66;5006046;28;102937;-64
2023/03/29 08:07:43;;;;;;;3.23;2.03;;;;;;;11.69;62.57;98918.00;5011335;28;104101;-64
2023/03/29 08:10:16;;;;;;;3.90;2.13;;;;;;;11.69;61.50;98913.59;5012726;28;103113;-64
2023/03/29 08:12:59;;;;;;;6.40;2.20;;;;;;;11.76;62.17;98920.09;5012518;27;102687;-63
2023/03/29 08:15:38;;;;;;;3.93;2.03;;;;;;;12.00;62.26;98918.31;5007113;27;104019;-64
2023/03/29 08:18:19;;;;;;;4.47;3.10;;;;;;;11.65;63.50;98909.41;5004846;28;104180;-64
2023/03/29 08:20:49;;;;;;;3.73;2.33;;;;;;;11.98;61.87;98914.94;5008330;28;102970;-64
2023/03/29 08:23:17;;;;;;;2.60;1.83;;;;;;;12.18;60.16;98901.00;5009760;28;102729;-64
2023/03/29 08:26:02;;;;;;;4.47;1.80;;;;;;;12.29;59.64;98917.91;5002904;28;102682;-63
2023/03/29 08:28:31;;;;;;;2.80;1.93;;;;;;;12.07;60.55;98902.81;5006934;28;103263;-64
2023/03/29 08:30:59;;;;;;;5.13;1.87;;;;;;;12.30;61.27;98914.28;5003288;28;103039;-64
2023/03/29 08:33:30;;;;;;;5.33;1.93;;;;;;;12.21;62.55;98908.72;5006731;28;103229;-64
2023/03/29 08:36:21;;;;;;;3.63;2.17;;;;;;;12.23;59.31;98913.06;5011695;28;102700;-64
2023/03/29 08:38:51;;;;;;;5.73;2.03;;;;;;;12.10;58.87;98919.28;5001567;28;103052;-64
2023/03/29 08:41:35;;;;;;;2.33;1.67;;;;;;;12.25;59.21;98912.00;5006906;27;105186;-64
2023/03/29 08:44:16;;;;;;;4.27;1.93;;;;;;;12.38;58.43;98911.94;5022846;27;102732;-64
2023/03/29 08:47:05;;;;;;;2.70;1.80;;;;;;;12.10;59.16;98903.41;5007227;28;102647;-64
2023/03/29 08:49:47;;;;;;;4.47;1.60;;;;;;;12.07;60.97;98918.69;5011516;28;103148;-64
2023/03/29 08:52:24;;;;;;;2.87;2.07;;;;;;;11.93;62.23;98916.22;5004091;28;105510;-64
2023/03/29 08:54:55;;;;;;;2.80;1.87;;;;;;;11.78;60.50;98907.63;4998567;27;103007;-64
2023/03/29 08:57:46;;;;;;;4.10;2.10;;;;;;;12.02;60.54;98897.84;5013475;28;102658;-64
2023/03/29 09:00:32;;;;;;;4.13;2.00;;;;;;;11.75;61.09;98901.69;5005468;28;103467;-61
2023/03/29 09:03:08;;;;;;;3.50;2.20;;;;;;;12.55;60.17;98898.19;5009016;28;104046;-61
2023/03/29 09:05:44;;;;;;;3.97;1.70;;;;;;;12.81;60.30;98897.03;5001101;28;103171;-63
2023/03/29 09:08:25;;;;;;;7.20;2.30;;;;;;;12.98;58.67;98895.69;5007309;28;102684;-61
2023/03/29 09:11:13;;;;;;;3.70;1.37;;;;;;;13.34;57.66;98898.97;5011828;28;103234;-62
2023/03/29 09:13:48;;;;;;;3.60;1.70;;;;;;;13.47;57.14;98890.03;5002109;28;103388;-61
2023/03/29 09:16:25;;;;;;;5.70;2.23;;;;;;;13.58;56.51;98890.00;5026774;27;102859;-61
2023/03/29 09:19:06;;;;;;;37.70;4.40;;;;;;;13.51;57.73;98900.25;5004165;28;104095;-61
2023/03/29 09:21:44;;;;;;;6.37;1.77;;;;;;;13.77;55.32;98896.31;5007841;28;103260;-62
2023/03/29 09:24:28;;;;;;;3.77;1.50;;;;;;;14.12;55.34;98889.91;5003469;28;103396;-67
2023/03/29 09:27:25;;;;;;;2.97;1.70;;;;;;;14.23;53.78;98893.31;5025055;27;102755;-67
2023/03/29 09:30:13;;;;;;;4.87;1.93;;;;;;;14.48;54.85;98887.66;5023590;27;104023;-63
2023/03/29 09:33:12;;;;;;;2.87;1.90;;;;;;;14.70;53.79;98878.69;5008449;28;103342;-60
2023/03/29 09:36:07;;;;;;;2.23;1.60;;;;;;;14.60;54.30;98876.94;5025626;27;104783;-61
2023/03/29 09:38:43;;;;;;;3.97;2.00;;;;;;;14.89;52.62;98876.13;5000804;28;102655;-60
2023/03/29 09:41:21;;;;;;;3.72;2.10;;;;;;;15.07;49.90;98868.38;5001777;28;102780;-60
2023/03/29 09:43:51;;;;;;;2.85;1.58;;;;;;;14.94;50.79;98859.75;5001401;28;103296;-61
2023/03/29 09:46:29;;;;;;;3.33;1.55;;;;;;;15.54;48.76;98857.03;4995669;28;105503;-61
2023/03/29 09:48:57;;;;;;;3.03;1.90;;;;;;;15.90;48.48;98847.50;5005426;27;104535;-60
2023/03/29 09:51:27;;;;;;;3.53;1.80;;;;;;;15.15;49.98;98843.72;5004785;28;102928;-61
2023/03/29 09:53:59;;;;;;;3.83;1.80;;;;;;;15.27;48.71;98845.31;5010679;27;105131;-60
2023/03/29 09:56:46;;;;;;;3.17;1.90;;;;;;;15.51;48.07;98837.81;5012383;27;103154;-60
2023/03/29 09:59:20;;;;;;;5.05;2.10;;;;;;;16.38;48.07;98847.44;5007761;28;102847;-60
2023/03/29 10:01:48;;;;;;;1.67;1.33;;;;;;;16.68;46.27;98847.25;5021534;27;103519;-60
2023/03/29 10:04:17;;;;;;;2.40;1.60;;;;;;;16.95;45.98;98840.28;5010222;28;103344;-60
2023/03/29 10:06:52;;;;;;;3.53;1.50;;;;;;;16.74;46.18;98859.16;5012050;28;103373;-60
2023/03/29 10:09:24;;;;;;;4.13;1.48;;;;;;;16.18;46.39;98861.78;5006101;27;102839;-60
2023/03/29 10:12:02;;;;;;;3.13;1.95;;;;;;;16.25;47.07;98852.25;5009695;28;104272;-60
2023/03/29 10:14:35;;;;;;;2.25;1.50;;;;;;;16.86;46.81;98851.81;5003100;28;103328;-61
2023/03/29 10:17:06;;;;;;;3.53;1.38;;;;;;;17.48;45.10;98849.25;5005199;28;103439;-60
2023/03/29 10:19:35;;;;;;;3.03;1.80;;;;;;;17.54;43.61;98840.69;5010780;28;103108;-61
2023/03/29 10:22:06;;;;;;;3.28;1.60;;;;;;;17.27;44.77;98838.84;5008632;28;102731;-61
2023/03/29 10:24:35;;;;;;;3.58;1.60;;;;;;;16.73;45.66;98846.81;5008626;28;104067;-61
2023/03/29 10:27:09;;;;;;;3.60;1.60;;;;;;;15.72;46.19;98832.38;5008612;28;103258;-62
2023/03/29 10:29:41;;;;;;;3.17;1.60;;;;;;;15.28;48.31;98836.31;5008554;28;102725;-62
2023/03/29 10:32:17;;;;;;;1.73;1.25;;;;;;;16.15;46.90;98841.59;5005256;28;102709;-61
2023/03/29 10:34:47;;;;;;;1.58;1.38;;;;;;;16.25;46.24;98841.59;5029207;27;103267;-61
2023/03/29 10:37:18;;;;;;;2.85;1.35;;;;;;;16.51;46.27;98839.13;5009164;28;103219;-61
2023/03/29 10:39:48;;;;;;;5.40;1.60;;;;;;;15.44;45.88;98824.16;5008895;28;102727;-61
2023/03/29 10:42:19;;;;;;;3.22;1.50;;;;;;;16.19;47.07;98827.00;5009014;28;104205;-62
2023/03/29 10:44:53;;;;;;;5.18;1.50;;;;;;;16.84;45.33;98825.31;5008063;27;103315;-61
2023/03/29 10:47:21;;;;;;;1.65;1.10;;;;;;;16.95;45.52;98819.78;5008142;28;103285;-62
2023/03/29 10:49:52;;;;;;;4.30;1.42;;;;;;;17.06;46.00;98811.56;5002950;28;102762;-62
2023/03/29 10:52:25;;;;;;;2.90;1.73;;;;;;;17.44;44.39;98805.13;5011288;28;102707;-61
2023/03/29 10:54:57;;;;;;;2.20;1.35;;;;;;;18.10;42.82;98804.75;5005539;28;103226;-62
2023/03/29 10:57:34;;;;;;;2.22;1.50;;;;;;;17.22;43.69;98816.25;5008674;28;103229;-62
2023/03/29 11:00:13;;;;;;;4.65;1.60;;;;;;;16.49;45.68;98811.75;5011047;28;102614;-61
2023/03/29 11:03:15;;;;;;;2.20;1.75;;;;;;;16.67;45.39;98810.88;5010715;28;103669;-61
2023/03/29 11:05:54;;;;;;;2.10;1.48;;;;;;;16.14;44.12;98804.44;5008585;28;104049;-62
2023/03/29 11:08:46;;;;;;;2.13;1.38;;;;;;;16.59;45.40;98797.44;5011020;28;103185;-62
2023/03/29 11:11:33;;;;;;;3.03;1.40;;;;;;;16.69;44.49;98795.59;5010720;28;102678;-62
2023/03/29 11:14:08;;;;;;;2.85;1.48;;;;;;;17.14;44.04;98794.78;5001012;28;102816;-62
2023/03/29 11:16:41;;;;;;;3.05;1.67;;;;;;;16.81;44.11;98786.38;5006827;28;103652;-62
2023/03/29 11:19:25;;;;;;;4.30;1.42;;;;;;;16.63;45.83;98792.66;5011162;28;103190;-62
2023/03/29 11:21:59;;;;;;;2.55;1.25;;;;;;;17.02;43.99;98778.16;5008245;28;103285;-62
2023/03/29 11:24:49;;;;;;;1.80;1.38;;;;;;;18.24;43.63;98767.63;5012610;28;102649;-62
2023/03/29 11:27:30;;;;;;;2.60;1.30;;;;;;;18.76;41.23;98767.56;5006237;28;103074;-61
2023/03/29 11:30:07;;;;;;;3.13;1.13;;;;;;;19.14;40.50;98766.22;4992745;28;103413;-60
2023/03/29 11:32:46;;;;;;;1.75;1.30;;;;;;;19.27;41.06;98758.53;4999352;28;103043;-60
2023/03/29 11:35:30;;;;;;;2.63;1.33;;;;;;;19.41;38.97;98757.94;4998879;28;102808;-60
2023/03/29 11:38:05;;;;;;;3.13;1.75;;;;;;;20.16;37.18;98765.66;5000598;28;103253;-60
2023/03/29 11:40:46;;;;;;;2.38;1.40;;;;;;;19.74;38.34;98758.78;5007145;28;103585;-60
2023/03/29 11:43:23;;;;;;;1.83;1.33;;;;;;;19.35;39.59;98761.22;5003643;28;102869;-60
2023/03/29 11:45:57;;;;;;;1.60;1.45;;;;;;;20.11;39.35;98759.97;5005570;28;103127;-60
2023/03/29 11:48:31;;;;;;;2.40;1.40;;;;;;;19.43;40.67;98758.59;4998958;28;103380;-59
2023/03/29 11:51:05;;;;;;;1.97;1.30;;;;;;;18.39;41.94;98749.97;5003030;28;103201;-60
2023/03/29 11:53:41;;;;;;;2.60;1.50;;;;;;;19.77;42.07;98753.94;5000343;27;103747;-58
2023/03/29 11:56:14;;;;;;;3.37;1.60;;;;;;;20.26;39.54;98744.06;5000587;27;103090;-60
2023/03/29 11:58:48;;;;;;;3.13;1.37;;;;;;;20.60;39.04;98743.78;4999241;27;103710;-60
2023/03/29 12:01:21;;;;;;;3.30;1.42;;;;;;;19.85;39.41;98740.53;4998371;27;103242;-61
2023/03/29 12:03:53;;;;;;;4.65;1.77;;;;;;;19.91;40.80;98745.22;5002984;28;103272;-61
2023/03/29 12:06:27;;;;;;;2.30;1.40;;;;;;;20.96;38.18;98739.63;4997003;28;103869;-61